sensor_id;sensor_type;location;lat;lon;timestamp;temperature;humidity
17146;DHT22;8688;54.444;18.444;2024-02-14T00:03:27;3.80;99.90
17146;DHT22;8688;54.444;18.444;2024-02-14T00:05:55;3.70;99.90
17146;DHT22;8688;54.444;18.444;2024-02-14T00:08:23;3.60;99.90
17146;DHT22;8688;54.444;18.444;2024-02-14T00:10:51;3.50;99.90
17146;DHT22;8688;54.444;18.444;2024-02-14T00:13:19;3.40;99.90
17146;DHT22;8688;54.444;18.444;2024-02-14T00:15:46;3.30;99.90
17146;DHT22;8688;54.444;18.444;2024-02-14T00:18:14;3.20;99.90
17146;DHT22;8688;54.444;18.444;2024-02-14T00:20:42;3.20;99.90
17146;DHT22;8688;54.444;18.444;2024-02-14T00:23:09;3.10;99.90
17146;DHT22;8688;54.444;18.444;2024-02-14T00:25:37;3.00;99.90
17146;DHT22;8688;54.444;18.444;2024-02-14T00:28:06;2.90;99.90
17146;DHT22;8688;54.444;18.444;2024-02-14T00:30:33;2.90;99.90
17146;DHT22;8688;54.444;18.444;2024-02-14T00:33:01;2.80;99.90
17146;DHT22;8688;54.444;18.444;2024-02-14T00:35:28;2.80;99.90
17146;DHT22;8688;54.444;18.444;2024-02-14T00:37:55;2.70;99.90
17146;DHT22;8688;54.444;18.444;2024-02-14T00:40:23;2.70;99.90
17146;DHT22;8688;54.444;18.444;2024-02-14T00:42:50;2.60;99.90
17146;DHT22;8688;54.444;18.444;2024-02-14T00:45:19;2.60;99.90
17146;DHT22;8688;54.444;18.444;2024-02-14T00:47:46;2.50;99.90
17146;DHT22;8688;54.444;18.444;2024-02-14T00:50:14;2.50;99.90
17146;DHT22;8688;54.444;18.444;2024-02-14T00:52:42;2.40;99.90
17146;DHT22;8688;54.444;18.444;2024-02-14T00:55:09;2.40;99.90
17146;DHT22;8688;54.444;18.444;2024-02-14T00:57:37;2.40;99.90
17146;DHT22;8688;54.444;18.444;2024-02-14T01:00:05;2.40;99.90
17146;DHT22;8688;54.444;18.444;2024-02-14T01:02:35;2.40;99.90
17146;DHT22;8688;54.444;18.444;2024-02-14T01:05:02;2.30;99.90
17146;DHT22;8688;54.444;18.444;2024-02-14T01:07:30;2.30;99.90
17146;DHT22;8688;54.444;18.444;2024-02-14T01:09:57;2.30;99.90
17146;DHT22;8688;54.444;18.444;2024-02-14T01:12:24;2.20;99.90
17146;DHT22;8688;54.444;18.444;2024-02-14T01:14:52;2.20;99.90
17146;DHT22;8688;54.444;18.444;2024-02-14T01:17:19;2.10;99.90
17146;DHT22;8688;54.444;18.444;2024-02-14T01:19:48;2.00;99.90
17146;DHT22;8688;54.444;18.444;2024-02-14T01:22:15;2.00;99.90
17146;DHT22;8688;54.444;18.444;2024-02-14T01:24:44;2.00;99.90
17146;DHT22;8688;54.444;18.444;2024-02-14T01:27:11;2.00;99.90
17146;DHT22;8688;54.444;18.444;2024-02-14T01:29:38;1.90;99.90
17146;DHT22;8688;54.444;18.444;2024-02-14T01:32:06;1.90;99.90
17146;DHT22;8688;54.444;18.444;2024-02-14T01:34:33;1.90;99.90
17146;DHT22;8688;54.444;18.444;2024-02-14T01:37:02;1.80;99.90
17146;DHT22;8688;54.444;18.444;2024-02-14T01:39:29;1.80;99.90
17146;DHT22;8688;54.444;18.444;2024-02-14T01:41:57;1.90;99.90
17146;DHT22;8688;54.444;18.444;2024-02-14T01:44:24;1.80;99.90
17146;DHT22;8688;54.444;18.444;2024-02-14T01:46:51;1.80;99.90
17146;DHT22;8688;54.444;18.444;2024-02-14T01:49:19;1.80;99.90
17146;DHT22;8688;54.444;18.444;2024-02-14T01:51:47;1.80;99.90
17146;DHT22;8688;54.444;18.444;2024-02-14T01:54:16;1.70;99.90
17146;DHT22;8688;54.444;18.444;2024-02-14T01:56:46;1.70;99.90
17146;DHT22;8688;54.444;18.444;2024-02-14T01:59:13;1.60;99.90
17146;DHT22;8688;54.444;18.444;2024-02-14T02:01:42;1.50;99.90
17146;DHT22;8688;54.444;18.444;2024-02-14T02:04:09;1.50;99.90
17146;DHT22;8688;54.444;18.444;2024-02-14T02:06:36;1.50;99.90
17146;DHT22;8688;54.444;18.444;2024-02-14T02:09:04;1.40;99.90
17146;DHT22;8688;54.444;18.444;2024-02-14T02:11:45;1.40;99.90
17146;DHT22;8688;54.444;18.444;2024-02-14T02:14:14;1.40;99.90
17146;DHT22;8688;54.444;18.444;2024-02-14T02:16:42;1.40;99.90
17146;DHT22;8688;54.444;18.444;2024-02-14T02:19:09;1.40;99.90
17146;DHT22;8688;54.444;18.444;2024-02-14T02:21:37;1.40;99.90
17146;DHT22;8688;54.444;18.444;2024-02-14T02:24:06;1.40;99.90
17146;DHT22;8688;54.444;18.444;2024-02-14T02:26:33;1.30;99.90
17146;DHT22;8688;54.444;18.444;2024-02-14T02:29:01;1.30;99.90
17146;DHT22;8688;54.444;18.444;2024-02-14T02:31:28;1.30;99.90
17146;DHT22;8688;54.444;18.444;2024-02-14T02:33:55;1.30;99.90
17146;DHT22;8688;54.444;18.444;2024-02-14T02:36:23;1.30;99.90
17146;DHT22;8688;54.444;18.444;2024-02-14T02:38:50;1.20;99.90
17146;DHT22;8688;54.444;18.444;2024-02-14T02:41:19;1.20;99.90
17146;DHT22;8688;54.444;18.444;2024-02-14T02:43:47;1.20;99.90
17146;DHT22;8688;54.444;18.444;2024-02-14T02:46:16;1.20;99.90
17146;DHT22;8688;54.444;18.444;2024-02-14T02:48:43;1.10;99.90
17146;DHT22;8688;54.444;18.444;2024-02-14T02:51:15;1.10;99.90
17146;DHT22;8688;54.444;18.444;2024-02-14T02:53:43;1.10;99.90
17146;DHT22;8688;54.444;18.444;2024-02-14T02:56:10;1.00;99.90
17146;DHT22;8688;54.444;18.444;2024-02-14T02:58:39;1.00;99.90
17146;DHT22;8688;54.444;18.444;2024-02-14T03:01:08;1.00;99.90
17146;DHT22;8688;54.444;18.444;2024-02-14T03:03:36;0.90;99.90
17146;DHT22;8688;54.444;18.444;2024-02-14T03:06:04;0.90;99.90
17146;DHT22;8688;54.444;18.444;2024-02-14T03:08:32;0.90;99.90
17146;DHT22;8688;54.444;18.444;2024-02-14T03:11:04;0.90;99.90
17146;DHT22;8688;54.444;18.444;2024-02-14T03:13:31;0.90;99.90
17146;DHT22;8688;54.444;18.444;2024-02-14T03:16:00;0.90;99.90
17146;DHT22;8688;54.444;18.444;2024-02-14T03:18:28;0.90;99.90
17146;DHT22;8688;54.444;18.444;2024-02-14T03:20:55;0.90;99.90
17146;DHT22;8688;54.444;18.444;2024-02-14T03:23:22;0.90;99.90
17146;DHT22;8688;54.444;18.444;2024-02-14T03:25:49;0.90;99.90
17146;DHT22;8688;54.444;18.444;2024-02-14T03:28:17;1.00;99.90
17146;DHT22;8688;54.444;18.444;2024-02-14T03:30:45;1.00;99.90
17146;DHT22;8688;54.444;18.444;2024-02-14T03:33:14;1.00;99.90
17146;DHT22;8688;54.444;18.444;2024-02-14T03:35:42;1.00;99.90
17146;DHT22;8688;54.444;18.444;2024-02-14T03:38:09;1.00;99.90
17146;DHT22;8688;54.444;18.444;2024-02-14T03:40:36;1.10;99.90
17146;DHT22;8688;54.444;18.444;2024-02-14T03:43:04;1.10;99.90
17146;DHT22;8688;54.444;18.444;2024-02-14T03:45:31;1.10;99.90
17146;DHT22;8688;54.444;18.444;2024-02-14T03:47:59;1.10;99.90
17146;DHT22;8688;54.444;18.444;2024-02-14T03:50:27;1.10;99.90
17146;DHT22;8688;54.444;18.444;2024-02-14T03:52:55;1.10;99.90
17146;DHT22;8688;54.444;18.444;2024-02-14T03:55:22;1.10;99.90
17146;DHT22;8688;54.444;18.444;2024-02-14T03:57:50;1.10;99.90
17146;DHT22;8688;54.444;18.444;2024-02-14T04:00:18;1.10;99.90
17146;DHT22;8688;54.444;18.444;2024-02-14T04:02:48;1.10;99.90
17146;DHT22;8688;54.444;18.444;2024-02-14T04:05:19;1.10;99.90
17146;DHT22;8688;54.444;18.444;2024-02-14T04:07:48;1.10;99.90
17146;DHT22;8688;54.444;18.444;2024-02-14T04:10:18;1.20;99.90
17146;DHT22;8688;54.444;18.444;2024-02-14T04:12:45;1.20;99.90
17146;DHT22;8688;54.444;18.444;2024-02-14T04:15:12;1.30;99.90
17146;DHT22;8688;54.444;18.444;2024-02-14T04:17:39;1.30;99.90
17146;DHT22;8688;54.444;18.444;2024-02-14T04:20:08;1.30;99.90
17146;DHT22;8688;54.444;18.444;2024-02-14T04:22:35;1.40;99.90
17146;DHT22;8688;54.444;18.444;2024-02-14T04:25:07;1.40;99.90
17146;DHT22;8688;54.444;18.444;2024-02-14T04:27:34;1.40;99.90
17146;DHT22;8688;54.444;18.444;2024-02-14T04:30:02;1.40;99.90
17146;DHT22;8688;54.444;18.444;2024-02-14T04:32:29;1.50;99.90
17146;DHT22;8688;54.444;18.444;2024-02-14T04:34:57;1.50;99.90
17146;DHT22;8688;54.444;18.444;2024-02-14T04:37:25;1.50;99.90
17146;DHT22;8688;54.444;18.444;2024-02-14T04:39:52;1.60;99.90
17146;DHT22;8688;54.444;18.444;2024-02-14T04:42:21;1.60;99.90
17146;DHT22;8688;54.444;18.444;2024-02-14T04:44:48;1.60;99.90
17146;DHT22;8688;54.444;18.444;2024-02-14T04:47:16;1.60;99.90
17146;DHT22;8688;54.444;18.444;2024-02-14T04:49:43;1.70;99.90
17146;DHT22;8688;54.444;18.444;2024-02-14T04:52:11;1.70;99.90
17146;DHT22;8688;54.444;18.444;2024-02-14T04:54:38;1.70;99.90
17146;DHT22;8688;54.444;18.444;2024-02-14T04:57:06;1.80;99.90
17146;DHT22;8688;54.444;18.444;2024-02-14T04:59:34;1.80;99.90
17146;DHT22;8688;54.444;18.444;2024-02-14T05:02:02;1.80;99.90
17146;DHT22;8688;54.444;18.444;2024-02-14T05:04:29;1.80;99.90
17146;DHT22;8688;54.444;18.444;2024-02-14T05:06:57;1.90;99.90
17146;DHT22;8688;54.444;18.444;2024-02-14T05:09:24;1.80;99.90
17146;DHT22;8688;54.444;18.444;2024-02-14T05:11:52;1.90;99.90
17146;DHT22;8688;54.444;18.444;2024-02-14T05:14:20;1.90;99.90
17146;DHT22;8688;54.444;18.444;2024-02-14T05:16:48;1.90;99.90
17146;DHT22;8688;54.444;18.444;2024-02-14T05:19:16;2.00;99.90
17146;DHT22;8688;54.444;18.444;2024-02-14T05:21:43;2.00;99.90
17146;DHT22;8688;54.444;18.444;2024-02-14T05:24:10;2.00;99.90
17146;DHT22;8688;54.444;18.444;2024-02-14T05:26:38;2.00;99.90
17146;DHT22;8688;54.444;18.444;2024-02-14T05:29:05;2.00;99.90
17146;DHT22;8688;54.444;18.444;2024-02-14T05:31:43;2.10;99.90
17146;DHT22;8688;54.444;18.444;2024-02-14T05:34:13;2.10;99.90
17146;DHT22;8688;54.444;18.444;2024-02-14T05:36:40;2.10;99.90
17146;DHT22;8688;54.444;18.444;2024-02-14T05:39:08;2.10;99.90
17146;DHT22;8688;54.444;18.444;2024-02-14T05:41:35;2.10;99.90
17146;DHT22;8688;54.444;18.444;2024-02-14T05:44:03;2.10;99.90
17146;DHT22;8688;54.444;18.444;2024-02-14T05:46:31;2.10;99.90
17146;DHT22;8688;54.444;18.444;2024-02-14T05:48:58;2.10;99.90
17146;DHT22;8688;54.444;18.444;2024-02-14T05:51:27;2.10;99.90
17146;DHT22;8688;54.444;18.444;2024-02-14T05:53:54;2.20;99.90
17146;DHT22;8688;54.444;18.444;2024-02-14T05:56:22;2.20;99.90
17146;DHT22;8688;54.444;18.444;2024-02-14T05:58:49;2.20;99.90
17146;DHT22;8688;54.444;18.444;2024-02-14T06:01:16;2.20;99.90
17146;DHT22;8688;54.444;18.444;2024-02-14T06:03:44;2.20;99.90
17146;DHT22;8688;54.444;18.444;2024-02-14T06:06:11;2.20;99.90
17146;DHT22;8688;54.444;18.444;2024-02-14T06:08:40;2.20;99.90
17146;DHT22;8688;54.444;18.444;2024-02-14T06:11:07;2.20;99.90
17146;DHT22;8688;54.444;18.444;2024-02-14T06:13:35;2.20;99.90
17146;DHT22;8688;54.444;18.444;2024-02-14T06:16:02;2.20;99.90
17146;DHT22;8688;54.444;18.444;2024-02-14T06:18:30;2.20;99.90
17146;DHT22;8688;54.444;18.444;2024-02-14T06:20:57;2.20;99.90
17146;DHT22;8688;54.444;18.444;2024-02-14T06:23:25;2.20;99.90
17146;DHT22;8688;54.444;18.444;2024-02-14T06:25:54;2.20;99.90
17146;DHT22;8688;54.444;18.444;2024-02-14T06:28:21;2.20;99.90
17146;DHT22;8688;54.444;18.444;2024-02-14T06:30:48;2.20;99.90
17146;DHT22;8688;54.444;18.444;2024-02-14T06:33:16;2.30;99.90
17146;DHT22;8688;54.444;18.444;2024-02-14T06:35:44;2.30;99.90
17146;DHT22;8688;54.444;18.444;2024-02-14T06:38:11;2.30;99.90
17146;DHT22;8688;54.444;18.444;2024-02-14T06:40:39;2.30;99.90
17146;DHT22;8688;54.444;18.444;2024-02-14T06:43:08;2.30;99.90
17146;DHT22;8688;54.444;18.444;2024-02-14T06:45:35;2.40;99.90
17146;DHT22;8688;54.444;18.444;2024-02-14T06:48:03;2.40;99.90
17146;DHT22;8688;54.444;18.444;2024-02-14T06:50:30;2.40;99.90
17146;DHT22;8688;54.444;18.444;2024-02-14T06:52:58;2.50;99.90
17146;DHT22;8688;54.444;18.444;2024-02-14T06:55:26;2.50;99.90
17146;DHT22;8688;54.444;18.444;2024-02-14T06:57:53;2.60;99.90
17146;DHT22;8688;54.444;18.444;2024-02-14T07:00:22;2.60;99.90
17146;DHT22;8688;54.444;18.444;2024-02-14T07:02:50;2.70;99.90
17146;DHT22;8688;54.444;18.444;2024-02-14T07:05:20;2.70;99.90
17146;DHT22;8688;54.444;18.444;2024-02-14T07:07:47;2.70;99.90
17146;DHT22;8688;54.444;18.444;2024-02-14T07:10:15;2.80;99.90
17146;DHT22;8688;54.444;18.444;2024-02-14T07:12:43;2.80;99.90
17146;DHT22;8688;54.444;18.444;2024-02-14T07:15:10;2.80;99.90
17146;DHT22;8688;54.444;18.444;2024-02-14T07:17:39;2.90;99.90
17146;DHT22;8688;54.444;18.444;2024-02-14T07:20:07;2.90;99.90
17146;DHT22;8688;54.444;18.444;2024-02-14T07:22:35;3.00;99.90
17146;DHT22;8688;54.444;18.444;2024-02-14T07:25:02;3.00;99.90
17146;DHT22;8688;54.444;18.444;2024-02-14T07:27:31;3.00;99.90
17146;DHT22;8688;54.444;18.444;2024-02-14T07:29:58;3.00;99.90
17146;DHT22;8688;54.444;18.444;2024-02-14T07:32:25;3.10;99.90
17146;DHT22;8688;54.444;18.444;2024-02-14T07:34:54;3.10;99.90
17146;DHT22;8688;54.444;18.444;2024-02-14T07:37:22;3.10;99.90
17146;DHT22;8688;54.444;18.444;2024-02-14T07:39:49;3.20;99.90
17146;DHT22;8688;54.444;18.444;2024-02-14T07:42:17;3.20;99.90
17146;DHT22;8688;54.444;18.444;2024-02-14T07:44:44;3.20;99.90
17146;DHT22;8688;54.444;18.444;2024-02-14T07:47:11;3.20;99.90
17146;DHT22;8688;54.444;18.444;2024-02-14T07:49:39;3.10;99.90
17146;DHT22;8688;54.444;18.444;2024-02-14T07:52:09;3.10;99.90
17146;DHT22;8688;54.444;18.444;2024-02-14T07:54:36;3.10;99.90
17146;DHT22;8688;54.444;18.444;2024-02-14T07:57:04;3.10;99.90
17146;DHT22;8688;54.444;18.444;2024-02-14T07:59:31;3.20;99.90
17146;DHT22;8688;54.444;18.444;2024-02-14T08:01:58;3.20;99.90
17146;DHT22;8688;54.444;18.444;2024-02-14T08:04:26;3.20;99.90
17146;DHT22;8688;54.444;18.444;2024-02-14T08:06:53;3.30;99.90
17146;DHT22;8688;54.444;18.444;2024-02-14T08:09:22;3.40;99.90
17146;DHT22;8688;54.444;18.444;2024-02-14T08:11:50;3.50;99.90
17146;DHT22;8688;54.444;18.444;2024-02-14T08:14:18;3.60;99.90
17146;DHT22;8688;54.444;18.444;2024-02-14T08:16:46;3.70;99.90
17146;DHT22;8688;54.444;18.444;2024-02-14T08:19:13;3.80;99.90
17146;DHT22;8688;54.444;18.444;2024-02-14T08:21:41;3.90;99.90
17146;DHT22;8688;54.444;18.444;2024-02-14T08:24:08;4.10;99.90
17146;DHT22;8688;54.444;18.444;2024-02-14T08:26:37;4.10;99.90
17146;DHT22;8688;54.444;18.444;2024-02-14T08:29:05;4.20;99.90
17146;DHT22;8688;54.444;18.444;2024-02-14T08:31:32;4.30;99.90
17146;DHT22;8688;54.444;18.444;2024-02-14T08:34:00;4.40;99.90
17146;DHT22;8688;54.444;18.444;2024-02-14T08:36:28;4.50;99.90
17146;DHT22;8688;54.444;18.444;2024-02-14T08:38:55;4.70;99.90
17146;DHT22;8688;54.444;18.444;2024-02-14T08:41:22;4.80;99.90
17146;DHT22;8688;54.444;18.444;2024-02-14T08:43:51;4.90;99.90
17146;DHT22;8688;54.444;18.444;2024-02-14T08:46:19;5.00;99.90
17146;DHT22;8688;54.444;18.444;2024-02-14T08:48:46;5.00;99.90
17146;DHT22;8688;54.444;18.444;2024-02-14T08:51:15;5.10;99.90
17146;DHT22;8688;54.444;18.444;2024-02-14T08:53:46;5.20;38.90
17146;DHT22;8688;54.444;18.444;2024-02-14T08:56:13;5.30;20.30
17146;DHT22;8688;54.444;18.444;2024-02-14T08:58:40;5.30;1.00
17146;DHT22;8688;54.444;18.444;2024-02-14T09:01:09;5.50;1.00
17146;DHT22;8688;54.444;18.444;2024-02-14T09:03:38;5.50;1.00
17146;DHT22;8688;54.444;18.444;2024-02-14T09:06:09;5.60;1.00
17146;DHT22;8688;54.444;18.444;2024-02-14T09:08:36;5.70;1.00
17146;DHT22;8688;54.444;18.444;2024-02-14T09:11:04;5.80;1.00
17146;DHT22;8688;54.444;18.444;2024-02-14T09:13:31;5.90;1.00
17146;DHT22;8688;54.444;18.444;2024-02-14T09:15:58;6.00;1.00
17146;DHT22;8688;54.444;18.444;2024-02-14T09:18:28;6.00;1.00
17146;DHT22;8688;54.444;18.444;2024-02-14T09:20:57;6.10;1.00
17146;DHT22;8688;54.444;18.444;2024-02-14T09:23:24;6.20;1.00
17146;DHT22;8688;54.444;18.444;2024-02-14T09:25:52;6.30;1.00
17146;DHT22;8688;54.444;18.444;2024-02-14T09:28:20;6.30;1.00
17146;DHT22;8688;54.444;18.444;2024-02-14T09:30:47;6.30;1.00
17146;DHT22;8688;54.444;18.444;2024-02-14T09:33:15;6.30;99.90
17146;DHT22;8688;54.444;18.444;2024-02-14T09:35:44;6.30;99.90
17146;DHT22;8688;54.444;18.444;2024-02-14T09:38:14;6.40;99.90
17146;DHT22;8688;54.444;18.444;2024-02-14T09:40:42;6.30;9.40
17146;DHT22;8688;54.444;18.444;2024-02-14T09:43:16;6.40;99.90
17146;DHT22;8688;54.444;18.444;2024-02-14T09:45:50;6.40;99.90
17146;DHT22;8688;54.444;18.444;2024-02-14T09:48:19;6.50;1.00
17146;DHT22;8688;54.444;18.444;2024-02-14T09:50:49;6.40;1.00
17146;DHT22;8688;54.444;18.444;2024-02-14T09:53:18;6.40;1.00
17146;DHT22;8688;54.444;18.444;2024-02-14T09:55:46;6.50;1.00
17146;DHT22;8688;54.444;18.444;2024-02-14T09:58:14;6.50;1.00
17146;DHT22;8688;54.444;18.444;2024-02-14T10:00:41;6.50;99.90
17146;DHT22;8688;54.444;18.444;2024-02-14T10:03:09;6.60;99.90
17146;DHT22;8688;54.444;18.444;2024-02-14T10:05:36;6.70;1.00
17146;DHT22;8688;54.444;18.444;2024-02-14T10:08:06;6.80;99.90
17146;DHT22;8688;54.444;18.444;2024-02-14T10:10:34;6.90;99.90
17146;DHT22;8688;54.444;18.444;2024-02-14T10:13:04;6.90;1.00
17146;DHT22;8688;54.444;18.444;2024-02-14T10:15:32;7.10;1.00
17146;DHT22;8688;54.444;18.444;2024-02-14T10:17:59;7.10;1.00
17146;DHT22;8688;54.444;18.444;2024-02-14T10:20:26;7.10;99.90
17146;DHT22;8688;54.444;18.444;2024-02-14T10:23:01;7.20;1.00
17146;DHT22;8688;54.444;18.444;2024-02-14T10:25:30;7.20;99.90
17146;DHT22;8688;54.444;18.444;2024-02-14T10:28:03;7.30;1.00
17146;DHT22;8688;54.444;18.444;2024-02-14T10:30:31;7.40;1.00
17146;DHT22;8688;54.444;18.444;2024-02-14T10:32:59;7.60;1.00
17146;DHT22;8688;54.444;18.444;2024-02-14T10:35:27;7.70;1.00
17146;DHT22;8688;54.444;18.444;2024-02-14T10:37:56;7.70;1.00
17146;DHT22;8688;54.444;18.444;2024-02-14T10:40:27;7.80;99.90
17146;DHT22;8688;54.444;18.444;2024-02-14T10:42:56;7.90;99.90
17146;DHT22;8688;54.444;18.444;2024-02-14T10:45:24;7.90;1.00
17146;DHT22;8688;54.444;18.444;2024-02-14T10:47:53;8.00;1.00
17146;DHT22;8688;54.444;18.444;2024-02-14T10:50:22;7.90;99.90
17146;DHT22;8688;54.444;18.444;2024-02-14T10:52:49;7.90;99.90
17146;DHT22;8688;54.444;18.444;2024-02-14T10:55:21;7.80;99.90
17146;DHT22;8688;54.444;18.444;2024-02-14T10:57:53;7.80;99.90
17146;DHT22;8688;54.444;18.444;2024-02-14T11:00:23;7.80;99.90
17146;DHT22;8688;54.444;18.444;2024-02-14T11:02:51;7.90;99.90
17146;DHT22;8688;54.444;18.444;2024-02-14T11:05:19;8.00;99.90
17146;DHT22;8688;54.444;18.444;2024-02-14T11:07:50;8.00;99.90
17146;DHT22;8688;54.444;18.444;2024-02-14T11:10:20;8.10;99.90
17146;DHT22;8688;54.444;18.444;2024-02-14T11:12:49;8.20;99.90
17146;DHT22;8688;54.444;18.444;2024-02-14T11:15:18;8.30;99.90
17146;DHT22;8688;54.444;18.444;2024-02-14T11:17:48;8.30;99.90
17146;DHT22;8688;54.444;18.444;2024-02-14T11:20:19;8.20;2.20
17146;DHT22;8688;54.444;18.444;2024-02-14T11:22:53;8.10;9.50
17146;DHT22;8688;54.444;18.444;2024-02-14T11:25:32;8.10;80.30
17146;DHT22;8688;54.444;18.444;2024-02-14T11:28:00;8.10;99.90
17146;DHT22;8688;54.444;18.444;2024-02-14T11:30:30;8.10;99.90
17146;DHT22;8688;54.444;18.444;2024-02-14T11:33:13;8.10;1.00
17146;DHT22;8688;54.444;18.444;2024-02-14T11:35:41;8.20;1.00
17146;DHT22;8688;54.444;18.444;2024-02-14T11:38:09;8.20;1.00
17146;DHT22;8688;54.444;18.444;2024-02-14T11:40:36;8.20;1.00
17146;DHT22;8688;54.444;18.444;2024-02-14T11:43:05;8.30;99.90
17146;DHT22;8688;54.444;18.444;2024-02-14T11:45:32;8.30;99.90
17146;DHT22;8688;54.444;18.444;2024-02-14T11:48:00;8.40;1.00
17146;DHT22;8688;54.444;18.444;2024-02-14T11:50:30;8.30;1.00
17146;DHT22;8688;54.444;18.444;2024-02-14T11:52:59;8.20;1.00
17146;DHT22;8688;54.444;18.444;2024-02-14T11:55:30;8.00;1.00
17146;DHT22;8688;54.444;18.444;2024-02-14T11:57:58;7.90;1.00
17146;DHT22;8688;54.444;18.444;2024-02-14T12:00:26;7.80;1.00
17146;DHT22;8688;54.444;18.444;2024-02-14T12:02:54;7.90;1.00
17146;DHT22;8688;54.444;18.444;2024-02-14T12:05:21;8.00;1.00
17146;DHT22;8688;54.444;18.444;2024-02-14T12:07:51;8.10;65.40
17146;DHT22;8688;54.444;18.444;2024-02-14T12:10:18;8.20;1.60
17146;DHT22;8688;54.444;18.444;2024-02-14T12:12:48;8.20;1.00
17146;DHT22;8688;54.444;18.444;2024-02-14T12:15:16;8.30;1.00
17146;DHT22;8688;54.444;18.444;2024-02-14T12:17:45;8.30;1.00
17146;DHT22;8688;54.444;18.444;2024-02-14T12:20:15;8.30;1.00
17146;DHT22;8688;54.444;18.444;2024-02-14T12:22:42;8.30;1.00
17146;DHT22;8688;54.444;18.444;2024-02-14T12:25:11;8.40;5.50
17146;DHT22;8688;54.444;18.444;2024-02-14T12:27:38;8.40;1.00
17146;DHT22;8688;54.444;18.444;2024-02-14T12:30:07;8.40;1.00
17146;DHT22;8688;54.444;18.444;2024-02-14T12:32:35;8.40;1.00
17146;DHT22;8688;54.444;18.444;2024-02-14T12:35:03;8.40;1.00
17146;DHT22;8688;54.444;18.444;2024-02-14T12:37:33;8.50;1.00
17146;DHT22;8688;54.444;18.444;2024-02-14T12:40:01;8.60;1.00
17146;DHT22;8688;54.444;18.444;2024-02-14T12:42:30;8.60;1.00
17146;DHT22;8688;54.444;18.444;2024-02-14T12:44:58;8.70;1.00
17146;DHT22;8688;54.444;18.444;2024-02-14T12:47:25;8.70;1.00
17146;DHT22;8688;54.444;18.444;2024-02-14T12:49:58;8.70;1.00
17146;DHT22;8688;54.444;18.444;2024-02-14T12:52:27;8.80;1.00
17146;DHT22;8688;54.444;18.444;2024-02-14T12:54:55;8.80;1.00
17146;DHT22;8688;54.444;18.444;2024-02-14T12:57:22;8.80;1.00
17146;DHT22;8688;54.444;18.444;2024-02-14T12:59:52;8.80;1.00
17146;DHT22;8688;54.444;18.444;2024-02-14T13:02:21;8.70;1.00
17146;DHT22;8688;54.444;18.444;2024-02-14T13:04:51;8.80;1.00
17146;DHT22;8688;54.444;18.444;2024-02-14T13:07:18;8.80;1.00
17146;DHT22;8688;54.444;18.444;2024-02-14T13:09:46;8.80;1.00
17146;DHT22;8688;54.444;18.444;2024-02-14T13:12:14;8.60;1.00
17146;DHT22;8688;54.444;18.444;2024-02-14T13:14:41;8.60;1.00
17146;DHT22;8688;54.444;18.444;2024-02-14T13:17:12;8.50;1.00
17146;DHT22;8688;54.444;18.444;2024-02-14T13:19:40;8.50;1.00
17146;DHT22;8688;54.444;18.444;2024-02-14T13:39:00;8.10;1.00
17146;DHT22;8688;54.444;18.444;2024-02-14T13:41:28;8.00;1.00
17146;DHT22;8688;54.444;18.444;2024-02-14T13:43:56;7.90;1.00
17146;DHT22;8688;54.444;18.444;2024-02-14T13:46:23;7.80;1.00
17146;DHT22;8688;54.444;18.444;2024-02-14T13:48:52;7.80;1.00
17146;DHT22;8688;54.444;18.444;2024-02-14T13:51:19;7.80;1.00
17146;DHT22;8688;54.444;18.444;2024-02-14T13:53:47;7.80;1.00
17146;DHT22;8688;54.444;18.444;2024-02-14T13:56:16;7.80;1.00
17146;DHT22;8688;54.444;18.444;2024-02-14T13:58:47;7.80;1.00
17146;DHT22;8688;54.444;18.444;2024-02-14T14:01:14;7.80;1.00
17146;DHT22;8688;54.444;18.444;2024-02-14T14:03:43;7.80;1.00
17146;DHT22;8688;54.444;18.444;2024-02-14T14:06:10;7.80;1.00
17146;DHT22;8688;54.444;18.444;2024-02-14T14:08:38;7.80;1.00
17146;DHT22;8688;54.444;18.444;2024-02-14T14:11:07;7.90;1.00
17146;DHT22;8688;54.444;18.444;2024-02-14T14:13:37;7.90;1.00
17146;DHT22;8688;54.444;18.444;2024-02-14T14:16:04;7.90;1.00
17146;DHT22;8688;54.444;18.444;2024-02-14T14:18:32;7.80;1.00
17146;DHT22;8688;54.444;18.444;2024-02-14T14:20:59;7.80;1.00
17146;DHT22;8688;54.444;18.444;2024-02-14T14:23:26;7.80;1.00
17146;DHT22;8688;54.444;18.444;2024-02-14T14:25:54;7.70;1.00
17146;DHT22;8688;54.444;18.444;2024-02-14T14:28:21;7.70;1.00
17146;DHT22;8688;54.444;18.444;2024-02-14T14:30:52;7.60;1.00
17146;DHT22;8688;54.444;18.444;2024-02-14T14:33:20;7.50;1.00
17146;DHT22;8688;54.444;18.444;2024-02-14T14:35:47;7.50;1.00
17146;DHT22;8688;54.444;18.444;2024-02-14T14:38:16;7.50;1.00
17146;DHT22;8688;54.444;18.444;2024-02-14T14:40:43;7.40;30.50
17146;DHT22;8688;54.444;18.444;2024-02-14T14:43:11;7.40;51.30
17146;DHT22;8688;54.444;18.444;2024-02-14T14:45:38;7.40;13.30
17146;DHT22;8688;54.444;18.444;2024-02-14T14:48:09;7.30;99.90
17146;DHT22;8688;54.444;18.444;2024-02-14T14:50:36;7.30;99.90
17146;DHT22;8688;54.444;18.444;2024-02-14T14:53:04;7.20;99.90
17146;DHT22;8688;54.444;18.444;2024-02-14T14:55:50;7.20;99.90
17146;DHT22;8688;54.444;18.444;2024-02-14T14:58:17;7.10;99.90
17146;DHT22;8688;54.444;18.444;2024-02-14T15:00:44;7.10;99.90
17146;DHT22;8688;54.444;18.444;2024-02-14T15:03:13;7.00;99.90
17146;DHT22;8688;54.444;18.444;2024-02-14T15:05:41;7.00;1.00
17146;DHT22;8688;54.444;18.444;2024-02-14T15:08:08;6.90;1.00
17146;DHT22;8688;54.444;18.444;2024-02-14T15:10:35;6.90;1.00
17146;DHT22;8688;54.444;18.444;2024-02-14T15:13:04;6.80;1.00
17146;DHT22;8688;54.444;18.444;2024-02-14T15:15:34;6.70;1.00
17146;DHT22;8688;54.444;18.444;2024-02-14T15:18:02;6.70;1.00
17146;DHT22;8688;54.444;18.444;2024-02-14T15:20:30;6.70;1.00
17146;DHT22;8688;54.444;18.444;2024-02-14T15:22:58;6.70;1.00
17146;DHT22;8688;54.444;18.444;2024-02-14T15:25:25;6.60;1.00
17146;DHT22;8688;54.444;18.444;2024-02-14T15:27:53;6.60;10.10
17146;DHT22;8688;54.444;18.444;2024-02-14T15:30:22;6.60;1.00
17146;DHT22;8688;54.444;18.444;2024-02-14T15:33:06;6.60;63.00
17146;DHT22;8688;54.444;18.444;2024-02-14T15:35:52;6.50;99.90
17146;DHT22;8688;54.444;18.444;2024-02-14T15:38:20;6.50;99.90
17146;DHT22;8688;54.444;18.444;2024-02-14T15:40:49;6.50;99.90
17146;DHT22;8688;54.444;18.444;2024-02-14T15:43:19;6.50;99.90
17146;DHT22;8688;54.444;18.444;2024-02-14T15:45:46;6.40;1.00
17146;DHT22;8688;54.444;18.444;2024-02-14T15:48:14;6.40;1.00
17146;DHT22;8688;54.444;18.444;2024-02-14T15:50:42;6.40;1.00
17146;DHT22;8688;54.444;18.444;2024-02-14T15:53:13;6.40;99.90
17146;DHT22;8688;54.444;18.444;2024-02-14T15:55:39;6.40;1.00
17146;DHT22;8688;54.444;18.444;2024-02-14T15:58:07;6.40;1.00
17146;DHT22;8688;54.444;18.444;2024-02-14T16:00:35;6.40;1.00
17146;DHT22;8688;54.444;18.444;2024-02-14T16:03:03;6.30;99.90
17146;DHT22;8688;54.444;18.444;2024-02-14T16:05:31;6.30;99.90
17146;DHT22;8688;54.444;18.444;2024-02-14T16:07:59;6.30;99.90
17146;DHT22;8688;54.444;18.444;2024-02-14T16:10:28;6.30;99.90
17146;DHT22;8688;54.444;18.444;2024-02-14T16:12:55;6.30;99.90
17146;DHT22;8688;54.444;18.444;2024-02-14T16:15:24;6.30;99.90